sensor_id;sensor_type;location;lat;lon;timestamp;P1;durP1;ratioP1;P2;durP2;ratioP2
14900;SDS011;7542;49.078;9.194;2022-12-07T00:00:19;5.18;;;4.68;;
14900;SDS011;7542;49.078;9.194;2022-12-07T00:01:22;5.05;;;4.57;;
14900;SDS011;7542;49.078;9.194;2022-12-07T00:02:27;5.20;;;4.30;;
14900;SDS011;7542;49.078;9.194;2022-12-07T00:03:29;5.80;;;4.65;;
14900;SDS011;7542;49.078;9.194;2022-12-07T00:04:31;5.13;;;4.60;;
14900;SDS011;7542;49.078;9.194;2022-12-07T00:05:33;5.18;;;4.68;;
14900;SDS011;7542;49.078;9.194;2022-12-07T00:06:36;5.55;;;4.57;;
14900;SDS011;7542;49.078;9.194;2022-12-07T00:07:43;5.35;;;4.88;;
14900;SDS011;7542;49.078;9.194;2022-12-07T00:08:45;7.30;;;5.13;;
14900;SDS011;7542;49.078;9.194;2022-12-07T00:09:48;6.40;;;5.13;;
14900;SDS011;7542;49.078;9.194;2022-12-07T00:10:50;6.25;;;4.90;;
14900;SDS011;7542;49.078;9.194;2022-12-07T00:11:52;5.93;;;5.05;;
14900;SDS011;7542;49.078;9.194;2022-12-07T00:12:54;5.22;;;4.70;;
14900;SDS011;7542;49.078;9.194;2022-12-07T00:13:57;6.25;;;4.88;;
14900;SDS011;7542;49.078;9.194;2022-12-07T00:15:02;5.10;;;4.47;;
14900;SDS011;7542;49.078;9.194;2022-12-07T00:17:12;6.38;;;5.45;;
14900;SDS011;7542;49.078;9.194;2022-12-07T00:18:14;5.60;;;4.95;;
14900;SDS011;7542;49.078;9.194;2022-12-07T00:19:16;5.38;;;4.82;;
14900;SDS011;7542;49.078;9.194;2022-12-07T00:20:18;5.80;;;5.07;;
14900;SDS011;7542;49.078;9.194;2022-12-07T00:21:21;5.80;;;4.70;;
14900;SDS011;7542;49.078;9.194;2022-12-07T00:22:26;5.55;;;4.72;;
14900;SDS011;7542;49.078;9.194;2022-12-07T00:23:28;5.03;;;4.63;;
14900;SDS011;7542;49.078;9.194;2022-12-07T00:24:29;6.85;;;4.90;;
14900;SDS011;7542;49.078;9.194;2022-12-07T00:25:31;6.25;;;4.80;;
14900;SDS011;7542;49.078;9.194;2022-12-07T00:26:34;6.35;;;4.97;;
14900;SDS011;7542;49.078;9.194;2022-12-07T00:27:38;5.95;;;4.93;;
14900;SDS011;7542;49.078;9.194;2022-12-07T00:28:40;5.55;;;4.90;;
14900;SDS011;7542;49.078;9.194;2022-12-07T00:29:46;5.45;;;4.95;;
14900;SDS011;7542;49.078;9.194;2022-12-07T00:30:48;5.50;;;4.68;;
14900;SDS011;7542;49.078;9.194;2022-12-07T00:31:50;5.13;;;4.70;;
14900;SDS011;7542;49.078;9.194;2022-12-07T00:32:52;6.03;;;4.68;;
14900;SDS011;7542;49.078;9.194;2022-12-07T00:33:53;5.53;;;4.88;;
14900;SDS011;7542;49.078;9.194;2022-12-07T00:34:55;6.50;;;4.90;;
14900;SDS011;7542;49.078;9.194;2022-12-07T00:35:57;6.60;;;5.03;;
14900;SDS011;7542;49.078;9.194;2022-12-07T00:37:01;5.60;;;4.90;;
14900;SDS011;7542;49.078;9.194;2022-12-07T00:38:02;6.43;;;4.72;;
14900;SDS011;7542;49.078;9.194;2022-12-07T00:39:04;6.53;;;4.70;;
14900;SDS011;7542;49.078;9.194;2022-12-07T00:40:06;8.23;;;5.60;;
14900;SDS011;7542;49.078;9.194;2022-12-07T00:41:10;6.32;;;4.82;;
14900;SDS011;7542;49.078;9.194;2022-12-07T00:42:15;5.35;;;4.47;;
14900;SDS011;7542;49.078;9.194;2022-12-07T00:43:17;6.72;;;4.80;;
14900;SDS011;7542;49.078;9.194;2022-12-07T00:44:18;7.75;;;4.93;;
14900;SDS011;7542;49.078;9.194;2022-12-07T00:45:20;5.00;;;4.53;;
14900;SDS011;7542;49.078;9.194;2022-12-07T00:46:22;6.18;;;5.05;;
14900;SDS011;7542;49.078;9.194;2022-12-07T00:47:26;7.32;;;5.65;;
14900;SDS011;7542;49.078;9.194;2022-12-07T00:48:27;7.03;;;4.97;;
14900;SDS011;7542;49.078;9.194;2022-12-07T00:49:29;7.38;;;5.30;;
14900;SDS011;7542;49.078;9.194;2022-12-07T00:50:31;6.78;;;5.15;;
14900;SDS011;7542;49.078;9.194;2022-12-07T00:51:33;8.88;;;5.22;;
14900;SDS011;7542;49.078;9.194;2022-12-07T00:52:35;6.40;;;4.82;;
14900;SDS011;7542;49.078;9.194;2022-12-07T00:53:37;5.55;;;5.03;;
14900;SDS011;7542;49.078;9.194;2022-12-07T00:54:42;6.25;;;5.28;;
14900;SDS011;7542;49.078;9.194;2022-12-07T00:55:44;5.45;;;4.95;;
14900;SDS011;7542;49.078;9.194;2022-12-07T00:56:46;6.07;;;4.85;;
14900;SDS011;7542;49.078;9.194;2022-12-07T00:57:48;7.28;;;5.50;;
14900;SDS011;7542;49.078;9.194;2022-12-07T00:58:51;5.78;;;5.15;;
14900;SDS011;7542;49.078;9.194;2022-12-07T00:59:57;6.70;;;5.07;;
14900;SDS011;7542;49.078;9.194;2022-12-07T01:01:02;6.90;;;5.32;;
14900;SDS011;7542;49.078;9.194;2022-12-07T01:02:06;5.93;;;5.13;;
14900;SDS011;7542;49.078;9.194;2022-12-07T01:03:08;6.30;;;4.85;;
14900;SDS011;7542;49.078;9.194;2022-12-07T01:04:13;6.30;;;5.50;;
14900;SDS011;7542;49.078;9.194;2022-12-07T01:05:15;6.07;;;4.97;;
14900;SDS011;7542;49.078;9.194;2022-12-07T01:06:18;5.95;;;5.07;;
14900;SDS011;7542;49.078;9.194;2022-12-07T01:07:21;7.72;;;5.57;;
14900;SDS011;7542;49.078;9.194;2022-12-07T01:08:24;8.30;;;5.63;;
14900;SDS011;7542;49.078;9.194;2022-12-07T01:09:28;6.22;;;4.97;;
14900;SDS011;7542;49.078;9.194;2022-12-07T01:10:29;6.40;;;4.95;;
14900;SDS011;7542;49.078;9.194;2022-12-07T01:11:32;6.72;;;4.88;;
14900;SDS011;7542;49.078;9.194;2022-12-07T01:12:34;7.03;;;5.57;;
14900;SDS011;7542;49.078;9.194;2022-12-07T01:13:36;6.47;;;5.47;;
14900;SDS011;7542;49.078;9.194;2022-12-07T01:14:38;9.35;;;5.82;;
14900;SDS011;7542;49.078;9.194;2022-12-07T01:15:43;7.07;;;5.70;;
14900;SDS011;7542;49.078;9.194;2022-12-07T01:16:45;6.50;;;5.00;;
14900;SDS011;7542;49.078;9.194;2022-12-07T01:17:47;7.38;;;5.40;;
14900;SDS011;7542;49.078;9.194;2022-12-07T01:18:50;5.57;;;5.05;;
14900;SDS011;7542;49.078;9.194;2022-12-07T01:19:54;6.38;;;5.35;;
14900;SDS011;7542;49.078;9.194;2022-12-07T01:20:57;8.23;;;5.20;;
14900;SDS011;7542;49.078;9.194;2022-12-07T01:22:04;6.65;;;5.30;;
14900;SDS011;7542;49.078;9.194;2022-12-07T01:23:06;5.97;;;5.13;;
14900;SDS011;7542;49.078;9.194;2022-12-07T01:24:09;6.53;;;5.43;;
14900;SDS011;7542;49.078;9.194;2022-12-07T01:25:12;5.78;;;5.18;;
14900;SDS011;7542;49.078;9.194;2022-12-07T01:26:15;6.50;;;5.50;;
14900;SDS011;7542;49.078;9.194;2022-12-07T01:27:23;7.97;;;5.47;;
14900;SDS011;7542;49.078;9.194;2022-12-07T01:28:25;6.97;;;5.53;;
14900;SDS011;7542;49.078;9.194;2022-12-07T01:29:28;6.07;;;5.15;;
14900;SDS011;7542;49.078;9.194;2022-12-07T01:30:30;6.93;;;5.38;;
14900;SDS011;7542;49.078;9.194;2022-12-07T01:31:31;6.05;;;5.18;;
14900;SDS011;7542;49.078;9.194;2022-12-07T01:32:34;8.95;;;4.95;;
14900;SDS011;7542;49.078;9.194;2022-12-07T01:33:36;6.88;;;6.05;;
14900;SDS011;7542;49.078;9.194;2022-12-07T01:34:39;8.38;;;5.65;;
14900;SDS011;7542;49.078;9.194;2022-12-07T01:35:41;6.63;;;5.47;;
14900;SDS011;7542;49.078;9.194;2022-12-07T01:36:43;6.68;;;5.35;;
14900;SDS011;7542;49.078;9.194;2022-12-07T01:37:45;6.30;;;5.60;;
14900;SDS011;7542;49.078;9.194;2022-12-07T01:38:47;6.55;;;5.82;;
14900;SDS011;7542;49.078;9.194;2022-12-07T01:39:54;6.32;;;5.65;;
14900;SDS011;7542;49.078;9.194;2022-12-07T01:40:56;8.10;;;5.80;;
14900;SDS011;7542;49.078;9.194;2022-12-07T01:42:00;6.88;;;5.43;;
14900;SDS011;7542;49.078;9.194;2022-12-07T01:43:01;9.73;;;5.70;;
14900;SDS011;7542;49.078;9.194;2022-12-07T01:45:37;8.52;;;6.00;;
14900;SDS011;7542;49.078;9.194;2022-12-07T01:46:41;7.95;;;5.35;;
14900;SDS011;7542;49.078;9.194;2022-12-07T01:48:00;6.20;;;5.43;;
14900;SDS011;7542;49.078;9.194;2022-12-07T01:49:03;7.82;;;5.93;;
14900;SDS011;7542;49.078;9.194;2022-12-07T01:50:11;9.23;;;5.65;;
14900;SDS011;7542;49.078;9.194;2022-12-07T01:51:13;6.38;;;5.70;;
14900;SDS011;7542;49.078;9.194;2022-12-07T01:53:24;6.55;;;5.30;;
14900;SDS011;7542;49.078;9.194;2022-12-07T01:54:29;5.30;;;4.80;;
14900;SDS011;7542;49.078;9.194;2022-12-07T01:55:34;7.10;;;5.10;;
14900;SDS011;7542;49.078;9.194;2022-12-07T01:56:42;6.35;;;5.32;;
14900;SDS011;7542;49.078;9.194;2022-12-07T01:57:52;5.45;;;4.95;;
14900;SDS011;7542;49.078;9.194;2022-12-07T01:58:56;7.97;;;6.32;;
14900;SDS011;7542;49.078;9.194;2022-12-07T02:00:02;6.65;;;5.18;;
14900;SDS011;7542;49.078;9.194;2022-12-07T02:01:07;7.00;;;5.35;;
14900;SDS011;7542;49.078;9.194;2022-12-07T02:02:10;6.28;;;5.57;;
14900;SDS011;7542;49.078;9.194;2022-12-07T02:03:25;6.60;;;5.15;;
14900;SDS011;7542;49.078;9.194;2022-12-07T02:04:35;5.43;;;4.93;;
14900;SDS011;7542;49.078;9.194;2022-12-07T02:05:37;6.65;;;5.43;;
14900;SDS011;7542;49.078;9.194;2022-12-07T02:06:42;6.72;;;5.65;;
14900;SDS011;7542;49.078;9.194;2022-12-07T02:07:45;9.85;;;5.45;;
14900;SDS011;7542;49.078;9.194;2022-12-07T02:08:50;6.55;;;5.22;;
14900;SDS011;7542;49.078;9.194;2022-12-07T02:09:52;6.45;;;5.32;;
14900;SDS011;7542;49.078;9.194;2022-12-07T02:10:54;6.68;;;5.30;;
14900;SDS011;7542;49.078;9.194;2022-12-07T02:11:56;7.20;;;5.82;;
14900;SDS011;7542;49.078;9.194;2022-12-07T02:13:02;6.63;;;5.57;;
14900;SDS011;7542;49.078;9.194;2022-12-07T02:14:09;8.27;;;6.03;;
14900;SDS011;7542;49.078;9.194;2022-12-07T02:15:11;5.95;;;5.45;;
14900;SDS011;7542;49.078;9.194;2022-12-07T02:23:18;7.85;;;5.90;;
14900;SDS011;7542;49.078;9.194;2022-12-07T02:27:02;6.10;;;5.43;;
14900;SDS011;7542;49.078;9.194;2022-12-07T02:30:47;6.55;;;5.55;;
14900;SDS011;7542;49.078;9.194;2022-12-07T02:31:59;8.07;;;5.70;;
14900;SDS011;7542;49.078;9.194;2022-12-07T02:36:11;6.95;;;5.28;;
14900;SDS011;7542;49.078;9.194;2022-12-07T02:37:29;5.78;;;4.82;;
14900;SDS011;7542;49.078;9.194;2022-12-07T02:39:00;5.35;;;4.82;;
14900;SDS011;7542;49.078;9.194;2022-12-07T02:40:17;7.63;;;5.70;;
14900;SDS011;7542;49.078;9.194;2022-12-07T02:41:47;6.10;;;5.25;;
14900;SDS011;7542;49.078;9.194;2022-12-07T02:43:12;6.88;;;5.20;;
14900;SDS011;7542;49.078;9.194;2022-12-07T02:44:25;6.00;;;4.93;;
14900;SDS011;7542;49.078;9.194;2022-12-07T02:45:31;6.40;;;5.63;;
14900;SDS011;7542;49.078;9.194;2022-12-07T02:46:51;7.50;;;5.75;;
14900;SDS011;7542;49.078;9.194;2022-12-07T02:48:03;6.28;;;5.30;;
14900;SDS011;7542;49.078;9.194;2022-12-07T02:49:09;5.88;;;5.22;;
14900;SDS011;7542;49.078;9.194;2022-12-07T02:50:12;6.22;;;5.38;;
14900;SDS011;7542;49.078;9.194;2022-12-07T02:51:14;8.13;;;6.30;;
14900;SDS011;7542;49.078;9.194;2022-12-07T02:52:19;5.70;;;5.20;;
14900;SDS011;7542;49.078;9.194;2022-12-07T02:54:40;7.88;;;5.68;;
14900;SDS011;7542;49.078;9.194;2022-12-07T02:55:42;8.07;;;6.07;;
14900;SDS011;7542;49.078;9.194;2022-12-07T02:57:01;6.03;;;5.43;;
14900;SDS011;7542;49.078;9.194;2022-12-07T03:00:02;6.55;;;5.63;;
14900;SDS011;7542;49.078;9.194;2022-12-07T03:03:03;6.75;;;5.28;;
14900;SDS011;7542;49.078;9.194;2022-12-07T03:06:04;6.95;;;4.85;;
14900;SDS011;7542;49.078;9.194;2022-12-07T03:07:41;5.75;;;4.47;;
14900;SDS011;7542;49.078;9.194;2022-12-07T03:09:08;8.27;;;4.93;;
14900;SDS011;7542;49.078;9.194;2022-12-07T03:12:55;6.10;;;5.38;;
14900;SDS011;7542;49.078;9.194;2022-12-07T03:14:07;6.63;;;5.50;;
14900;SDS011;7542;49.078;9.194;2022-12-07T03:16:50;7.35;;;5.30;;
14900;SDS011;7542;49.078;9.194;2022-12-07T03:18:00;6.90;;;5.20;;
14900;SDS011;7542;49.078;9.194;2022-12-07T03:19:07;5.93;;;5.20;;
14900;SDS011;7542;49.078;9.194;2022-12-07T03:20:16;7.45;;;5.55;;
14900;SDS011;7542;49.078;9.194;2022-12-07T03:21:23;6.80;;;5.78;;
14900;SDS011;7542;49.078;9.194;2022-12-07T03:22:58;6.78;;;5.38;;
14900;SDS011;7542;49.078;9.194;2022-12-07T03:24:04;6.38;;;5.53;;
14900;SDS011;7542;49.078;9.194;2022-12-07T03:25:13;5.75;;;4.95;;
14900;SDS011;7542;49.078;9.194;2022-12-07T03:26:17;7.15;;;6.10;;
14900;SDS011;7542;49.078;9.194;2022-12-07T03:27:25;7.15;;;5.50;;
14900;SDS011;7542;49.078;9.194;2022-12-07T03:28:38;6.60;;;5.50;;
14900;SDS011;7542;49.078;9.194;2022-12-07T03:30:03;7.45;;;5.57;;
14900;SDS011;7542;49.078;9.194;2022-12-07T03:31:22;6.63;;;5.20;;
14900;SDS011;7542;49.078;9.194;2022-12-07T03:32:33;7.28;;;5.20;;
14900;SDS011;7542;49.078;9.194;2022-12-07T03:33:44;6.00;;;5.40;;
14900;SDS011;7542;49.078;9.194;2022-12-07T03:34:53;7.68;;;5.78;;
14900;SDS011;7542;49.078;9.194;2022-12-07T03:36:06;9.02;;;6.38;;
14900;SDS011;7542;49.078;9.194;2022-12-07T03:37:23;10.07;;;5.88;;
14900;SDS011;7542;49.078;9.194;2022-12-07T03:38:33;8.75;;;6.13;;
14900;SDS011;7542;49.078;9.194;2022-12-07T03:40:03;7.50;;;5.22;;
14900;SDS011;7542;49.078;9.194;2022-12-07T03:42:32;7.80;;;6.30;;
14900;SDS011;7542;49.078;9.194;2022-12-07T03:43:35;6.38;;;5.68;;
14900;SDS011;7542;49.078;9.194;2022-12-07T03:44:38;8.65;;;6.10;;
14900;SDS011;7542;49.078;9.194;2022-12-07T03:45:42;9.05;;;6.35;;
14900;SDS011;7542;49.078;9.194;2022-12-07T03:47:10;9.27;;;6.20;;
14900;SDS011;7542;49.078;9.194;2022-12-07T03:53:05;7.57;;;5.93;;
14900;SDS011;7542;49.078;9.194;2022-12-07T03:54:21;7.75;;;6.05;;
14900;SDS011;7542;49.078;9.194;2022-12-07T03:55:34;8.48;;;6.00;;
14900;SDS011;7542;49.078;9.194;2022-12-07T03:56:40;7.05;;;5.80;;
14900;SDS011;7542;49.078;9.194;2022-12-07T03:57:45;8.88;;;6.43;;
14900;SDS011;7542;49.078;9.194;2022-12-07T03:58:50;9.07;;;6.43;;
14900;SDS011;7542;49.078;9.194;2022-12-07T03:59:55;8.73;;;6.65;;
14900;SDS011;7542;49.078;9.194;2022-12-07T04:00:58;8.52;;;6.72;;
14900;SDS011;7542;49.078;9.194;2022-12-07T04:02:04;6.75;;;5.55;;
14900;SDS011;7542;49.078;9.194;2022-12-07T04:03:08;7.28;;;6.20;;
14900;SDS011;7542;49.078;9.194;2022-12-07T04:04:11;6.82;;;6.03;;
14900;SDS011;7542;49.078;9.194;2022-12-07T04:05:13;7.38;;;6.28;;
14900;SDS011;7542;49.078;9.194;2022-12-07T04:06:15;10.10;;;6.15;;
14900;SDS011;7542;49.078;9.194;2022-12-07T04:07:18;6.43;;;5.80;;
14900;SDS011;7542;49.078;9.194;2022-12-07T04:08:20;8.23;;;5.80;;
14900;SDS011;7542;49.078;9.194;2022-12-07T04:09:22;6.93;;;5.72;;
14900;SDS011;7542;49.078;9.194;2022-12-07T04:10:25;8.32;;;5.95;;
14900;SDS011;7542;49.078;9.194;2022-12-07T04:11:27;8.27;;;6.45;;
14900;SDS011;7542;49.078;9.194;2022-12-07T04:12:29;9.70;;;6.13;;
14900;SDS011;7542;49.078;9.194;2022-12-07T04:13:31;8.32;;;6.30;;
14900;SDS011;7542;49.078;9.194;2022-12-07T04:14:53;9.13;;;5.72;;
14900;SDS011;7542;49.078;9.194;2022-12-07T04:15:55;7.53;;;6.10;;
14900;SDS011;7542;49.078;9.194;2022-12-07T04:16:58;9.38;;;6.50;;
14900;SDS011;7542;49.078;9.194;2022-12-07T04:18:00;8.90;;;5.88;;
14900;SDS011;7542;49.078;9.194;2022-12-07T04:19:02;7.45;;;6.15;;
14900;SDS011;7542;49.078;9.194;2022-12-07T04:20:05;7.10;;;5.53;;
14900;SDS011;7542;49.078;9.194;2022-12-07T04:21:08;8.23;;;6.28;;
14900;SDS011;7542;49.078;9.194;2022-12-07T04:22:10;10.23;;;6.22;;
14900;SDS011;7542;49.078;9.194;2022-12-07T04:23:13;8.35;;;6.40;;
14900;SDS011;7542;49.078;9.194;2022-12-07T04:24:15;7.53;;;5.85;;
14900;SDS011;7542;49.078;9.194;2022-12-07T04:25:17;6.90;;;6.00;;
14900;SDS011;7542;49.078;9.194;2022-12-07T04:26:19;8.82;;;6.82;;
14900;SDS011;7542;49.078;9.194;2022-12-07T04:27:21;7.72;;;6.03;;
14900;SDS011;7542;49.078;9.194;2022-12-07T04:28:24;8.15;;;6.00;;
14900;SDS011;7542;49.078;9.194;2022-12-07T04:29:26;7.13;;;6.13;;
14900;SDS011;7542;49.078;9.194;2022-12-07T04:30:28;8.75;;;6.13;;
14900;SDS011;7542;49.078;9.194;2022-12-07T04:31:31;7.05;;;6.10;;
14900;SDS011;7542;49.078;9.194;2022-12-07T04:32:33;7.22;;;6.25;;
14900;SDS011;7542;49.078;9.194;2022-12-07T04:33:35;9.45;;;6.97;;
14900;SDS011;7542;49.078;9.194;2022-12-07T04:34:37;7.95;;;6.22;;
14900;SDS011;7542;49.078;9.194;2022-12-07T04:35:41;6.88;;;6.00;;
14900;SDS011;7542;49.078;9.194;2022-12-07T04:36:44;9.40;;;6.97;;
14900;SDS011;7542;49.078;9.194;2022-12-07T04:37:47;7.95;;;6.75;;
14900;SDS011;7542;49.078;9.194;2022-12-07T04:38:49;8.18;;;6.50;;
14900;SDS011;7542;49.078;9.194;2022-12-07T04:39:53;8.32;;;6.35;;
14900;SDS011;7542;49.078;9.194;2022-12-07T04:40:55;7.38;;;5.90;;
14900;SDS011;7542;49.078;9.194;2022-12-07T04:41:58;12.88;;;8.32;;
14900;SDS011;7542;49.078;9.194;2022-12-07T04:43:01;13.52;;;8.68;;
14900;SDS011;7542;49.078;9.194;2022-12-07T04:44:03;16.10;;;10.13;;
14900;SDS011;7542;49.078;9.194;2022-12-07T04:45:08;16.40;;;9.95;;
14900;SDS011;7542;49.078;9.194;2022-12-07T04:46:10;22.65;;;12.95;;
14900;SDS011;7542;49.078;9.194;2022-12-07T04:47:13;27.65;;;14.20;;
14900;SDS011;7542;49.078;9.194;2022-12-07T04:48:15;29.27;;;14.90;;
14900;SDS011;7542;49.078;9.194;2022-12-07T04:49:17;24.65;;;13.00;;
14900;SDS011;7542;49.078;9.194;2022-12-07T04:50:20;16.38;;;9.65;;
14900;SDS011;7542;49.078;9.194;2022-12-07T04:51:23;12.30;;;8.48;;
14900;SDS011;7542;49.078;9.194;2022-12-07T04:52:27;8.55;;;6.22;;
14900;SDS011;7542;49.078;9.194;2022-12-07T04:53:29;8.68;;;6.82;;
14900;SDS011;7542;49.078;9.194;2022-12-07T04:54:31;13.48;;;8.75;;
14900;SDS011;7542;49.078;9.194;2022-12-07T04:55:34;14.63;;;8.15;;
14900;SDS011;7542;49.078;9.194;2022-12-07T04:56:37;11.57;;;7.55;;
14900;SDS011;7542;49.078;9.194;2022-12-07T04:57:39;10.80;;;7.20;;
14900;SDS011;7542;49.078;9.194;2022-12-07T04:58:41;9.40;;;7.13;;
14900;SDS011;7542;49.078;9.194;2022-12-07T04:59:45;9.70;;;7.25;;
14900;SDS011;7542;49.078;9.194;2022-12-07T05:00:47;8.77;;;6.88;;
14900;SDS011;7542;49.078;9.194;2022-12-07T05:01:49;9.40;;;6.82;;
14900;SDS011;7542;49.078;9.194;2022-12-07T05:02:51;8.10;;;6.57;;
14900;SDS011;7542;49.078;9.194;2022-12-07T05:03:54;8.43;;;6.30;;
14900;SDS011;7542;49.078;9.194;2022-12-07T05:04:56;9.20;;;6.72;;
14900;SDS011;7542;49.078;9.194;2022-12-07T05:05:58;7.47;;;6.55;;
14900;SDS011;7542;49.078;9.194;2022-12-07T05:07:00;9.98;;;6.88;;
14900;SDS011;7542;49.078;9.194;2022-12-07T05:08:02;9.77;;;6.97;;
14900;SDS011;7542;49.078;9.194;2022-12-07T05:09:05;9.32;;;6.88;;
14900;SDS011;7542;49.078;9.194;2022-12-07T05:10:07;8.25;;;6.95;;
14900;SDS011;7542;49.078;9.194;2022-12-07T05:11:10;9.45;;;6.95;;
14900;SDS011;7542;49.078;9.194;2022-12-07T05:12:33;9.07;;;6.78;;
14900;SDS011;7542;49.078;9.194;2022-12-07T05:13:35;9.48;;;6.97;;
14900;SDS011;7542;49.078;9.194;2022-12-07T05:14:37;10.52;;;7.00;;
14900;SDS011;7542;49.078;9.194;2022-12-07T05:15:39;9.93;;;7.35;;
14900;SDS011;7542;49.078;9.194;2022-12-07T05:16:45;8.90;;;6.78;;
14900;SDS011;7542;49.078;9.194;2022-12-07T05:17:49;9.18;;;6.65;;
14900;SDS011;7542;49.078;9.194;2022-12-07T05:18:53;8.23;;;6.28;;
14900;SDS011;7542;49.078;9.194;2022-12-07T05:19:55;9.07;;;6.75;;
14900;SDS011;7542;49.078;9.194;2022-12-07T05:20:57;8.13;;;6.35;;
14900;SDS011;7542;49.078;9.194;2022-12-07T05:22:00;9.27;;;6.43;;
14900;SDS011;7542;49.078;9.194;2022-12-07T05:23:02;8.75;;;6.68;;
14900;SDS011;7542;49.078;9.194;2022-12-07T05:24:04;9.48;;;7.05;;
14900;SDS011;7542;49.078;9.194;2022-12-07T05:25:07;8.18;;;6.85;;
14900;SDS011;7542;49.078;9.194;2022-12-07T05:26:10;11.05;;;6.82;;
14900;SDS011;7542;49.078;9.194;2022-12-07T05:27:12;10.63;;;7.30;;
14900;SDS011;7542;49.078;9.194;2022-12-07T05:28:14;8.30;;;6.75;;
14900;SDS011;7542;49.078;9.194;2022-12-07T05:29:16;8.85;;;7.00;;
14900;SDS011;7542;49.078;9.194;2022-12-07T05:30:19;8.73;;;6.30;;
14900;SDS011;7542;49.078;9.194;2022-12-07T05:31:21;8.80;;;6.20;;
14900;SDS011;7542;49.078;9.194;2022-12-07T05:32:25;8.70;;;6.28;;
14900;SDS011;7542;49.078;9.194;2022-12-07T05:33:27;8.02;;;6.38;;
14900;SDS011;7542;49.078;9.194;2022-12-07T05:34:29;8.77;;;6.60;;
14900;SDS011;7542;49.078;9.194;2022-12-07T05:35:31;9.90;;;6.88;;
14900;SDS011;7542;49.078;9.194;2022-12-07T05:36:34;8.93;;;6.75;;
14900;SDS011;7542;49.078;9.194;2022-12-07T05:37:36;10.48;;;7.15;;
14900;SDS011;7542;49.078;9.194;2022-12-07T05:38:38;8.32;;;6.57;;
14900;SDS011;7542;49.078;9.194;2022-12-07T05:39:40;8.82;;;6.70;;
14900;SDS011;7542;49.078;9.194;2022-12-07T05:40:43;8.65;;;6.97;;
14900;SDS011;7542;49.078;9.194;2022-12-07T05:41:46;8.93;;;6.65;;
14900;SDS011;7542;49.078;9.194;2022-12-07T05:43:06;8.32;;;6.93;;
14900;SDS011;7542;49.078;9.194;2022-12-07T05:44:09;9.65;;;6.72;;
14900;SDS011;7542;49.078;9.194;2022-12-07T05:45:11;8.75;;;6.75;;
14900;SDS011;7542;49.078;9.194;2022-12-07T05:46:13;11.02;;;7.53;;
14900;SDS011;7542;49.078;9.194;2022-12-07T05:47:15;9.60;;;6.43;;
14900;SDS011;7542;49.078;9.194;2022-12-07T05:48:18;9.20;;;7.60;;
14900;SDS011;7542;49.078;9.194;2022-12-07T05:49:20;10.27;;;7.38;;
14900;SDS011;7542;49.078;9.194;2022-12-07T05:50:22;9.10;;;6.90;;
14900;SDS011;7542;49.078;9.194;2022-12-07T05:51:24;9.18;;;6.80;;
14900;SDS011;7542;49.078;9.194;2022-12-07T05:52:26;9.02;;;6.57;;
14900;SDS011;7542;49.078;9.194;2022-12-07T05:53:29;10.63;;;7.53;;
14900;SDS011;7542;49.078;9.194;2022-12-07T05:54:31;8.25;;;6.72;;
14900;SDS011;7542;49.078;9.194;2022-12-07T05:55:34;10.63;;;6.75;;
14900;SDS011;7542;49.078;9.194;2022-12-07T05:56:36;8.80;;;6.68;;
14900;SDS011;7542;49.078;9.194;2022-12-07T05:57:38;7.35;;;6.15;;
14900;SDS011;7542;49.078;9.194;2022-12-07T05:58:40;8.50;;;6.63;;
14900;SDS011;7542;49.078;9.194;2022-12-07T06:00:02;8.45;;;5.72;;
14900;SDS011;7542;49.078;9.194;2022-12-07T06:01:05;7.93;;;5.75;;
14900;SDS011;7542;49.078;9.194;2022-12-07T06:02:09;10.48;;;6.47;;
14900;SDS011;7542;49.078;9.194;2022-12-07T06:03:13;7.63;;;5.97;;
14900;SDS011;7542;49.078;9.194;2022-12-07T06:04:15;8.32;;;6.32;;
14900;SDS011;7542;49.078;9.194;2022-12-07T06:05:18;8.35;;;6.25;;
14900;SDS011;7542;49.078;9.194;2022-12-07T06:06:20;10.55;;;6.45;;
14900;SDS011;7542;49.078;9.194;2022-12-07T06:07:22;9.30;;;6.35;;
14900;SDS011;7542;49.078;9.194;2022-12-07T06:08:25;8.20;;;6.40;;
14900;SDS011;7542;49.078;9.194;2022-12-07T06:09:27;8.88;;;6.40;;
14900;SDS011;7542;49.078;9.194;2022-12-07T06:10:30;8.60;;;6.28;;
14900;SDS011;7542;49.078;9.194;2022-12-07T06:11:32;8.98;;;6.45;;
14900;SDS011;7542;49.078;9.194;2022-12-07T06:12:53;10.50;;;6.80;;
14900;SDS011;7542;49.078;9.194;2022-12-07T06:13:56;10.85;;;8.18;;
14900;SDS011;7542;49.078;9.194;2022-12-07T06:14:58;10.60;;;7.28;;
14900;SDS011;7542;49.078;9.194;2022-12-07T06:16:00;9.15;;;7.05;;
14900;SDS011;7542;49.078;9.194;2022-12-07T06:17:02;8.43;;;6.50;;
14900;SDS011;7542;49.078;9.194;2022-12-07T06:18:04;9.60;;;7.30;;
14900;SDS011;7542;49.078;9.194;2022-12-07T06:19:07;9.30;;;7.20;;
14900;SDS011;7542;49.078;9.194;2022-12-07T06:20:09;11.13;;;7.38;;
14900;SDS011;7542;49.078;9.194;2022-12-07T06:21:11;7.80;;;7.00;;
14900;SDS011;7542;49.078;9.194;2022-12-07T06:22:13;9.32;;;6.82;;
14900;SDS011;7542;49.078;9.194;2022-12-07T06:23:17;8.65;;;7.40;;
14900;SDS011;7542;49.078;9.194;2022-12-07T06:24:19;9.18;;;6.50;;
14900;SDS011;7542;49.078;9.194;2022-12-07T06:25:21;11.13;;;7.10;;
14900;SDS011;7542;49.078;9.194;2022-12-07T06:26:23;9.13;;;6.88;;
14900;SDS011;7542;49.078;9.194;2022-12-07T06:27:25;8.98;;;6.53;;
14900;SDS011;7542;49.078;9.194;2022-12-07T06:28:28;7.97;;;6.43;;
14900;SDS011;7542;49.078;9.194;2022-12-07T06:29:30;10.60;;;6.75;;
14900;SDS011;7542;49.078;9.194;2022-12-07T06:30:32;8.82;;;6.30;;
14900;SDS011;7542;49.078;9.194;2022-12-07T06:31:35;8.50;;;6.40;;
14900;SDS011;7542;49.078;9.194;2022-12-07T06:32:37;7.90;;;6.13;;
14900;SDS011;7542;49.078;9.194;2022-12-07T06:33:40;9.20;;;6.82;;
14900;SDS011;7542;49.078;9.194;2022-12-07T06:34:42;11.05;;;7.93;;
14900;SDS011;7542;49.078;9.194;2022-12-07T06:35:44;12.73;;;8.70;;
14900;SDS011;7542;49.078;9.194;2022-12-07T06:36:47;14.38;;;9.40;;
14900;SDS011;7542;49.078;9.194;2022-12-07T06:37:52;16.80;;;10.45;;
14900;SDS011;7542;49.078;9.194;2022-12-07T06:38:54;13.68;;;9.38;;
14900;SDS011;7542;49.078;9.194;2022-12-07T06:39:57;11.10;;;8.10;;
14900;SDS011;7542;49.078;9.194;2022-12-07T06:40:59;11.10;;;7.47;;
14900;SDS011;7542;49.078;9.194;2022-12-07T06:42:01;9.48;;;7.43;;
14900;SDS011;7542;49.078;9.194;2022-12-07T06:43:03;10.00;;;7.20;;
14900;SDS011;7542;49.078;9.194;2022-12-07T06:44:05;8.60;;;6.50;;
14900;SDS011;7542;49.078;9.194;2022-12-07T06:45:08;9.75;;;5.93;;
14900;SDS011;7542;49.078;9.194;2022-12-07T06:46:11;8.35;;;6.20;;
14900;SDS011;7542;49.078;9.194;2022-12-07T06:47:13;7.10;;;5.70;;
14900;SDS011;7542;49.078;9.194;2022-12-07T06:48:35;7.85;;;5.65;;
14900;SDS011;7542;49.078;9.194;2022-12-07T06:49:37;9.18;;;6.18;;
14900;SDS011;7542;49.078;9.194;2022-12-07T06:50:40;7.45;;;5.72;;
14900;SDS011;7542;49.078;9.194;2022-12-07T06:51:42;7.57;;;5.95;;
14900;SDS011;7542;49.078;9.194;2022-12-07T06:52:44;8.52;;;5.25;;
14900;SDS011;7542;49.078;9.194;2022-12-07T06:53:46;8.00;;;6.13;;
14900;SDS011;7542;49.078;9.194;2022-12-07T06:54:49;8.23;;;5.95;;
14900;SDS011;7542;49.078;9.194;2022-12-07T06:55:51;8.02;;;5.88;;
14900;SDS011;7542;49.078;9.194;2022-12-07T06:56:53;8.25;;;6.18;;
14900;SDS011;7542;49.078;9.194;2022-12-07T06:57:55;6.72;;;5.93;;
14900;SDS011;7542;49.078;9.194;2022-12-07T06:58:57;8.40;;;6.18;;
14900;SDS011;7542;49.078;9.194;2022-12-07T06:59:59;8.88;;;6.28;;
14900;SDS011;7542;49.078;9.194;2022-12-07T07:01:02;7.65;;;5.95;;
14900;SDS011;7542;49.078;9.194;2022-12-07T07:02:09;7.10;;;5.88;;
14900;SDS011;7542;49.078;9.194;2022-12-07T07:03:12;9.10;;;6.88;;
14900;SDS011;7542;49.078;9.194;2022-12-07T07:04:14;16.98;;;6.70;;
14900;SDS011;7542;49.078;9.194;2022-12-07T07:05:16;21.08;;;7.53;;
14900;SDS011;7542;49.078;9.194;2022-12-07T07:06:19;15.45;;;7.43;;
14900;SDS011;7542;49.078;9.194;2022-12-07T07:07:21;20.50;;;7.78;;
14900;SDS011;7542;49.078;9.194;2022-12-07T07:08:23;15.02;;;7.25;;
14900;SDS011;7542;49.078;9.194;2022-12-07T07:09:25;11.43;;;6.53;;
14900;SDS011;7542;49.078;9.194;2022-12-07T07:10:28;10.93;;;6.53;;
14900;SDS011;7542;49.078;9.194;2022-12-07T07:11:30;7.82;;;6.00;;